Renner Field-Goodland Municipal Airport Goodland US
ICAO: KGLD
IATA: GLD
Category: Medium
Scheduled Services: No

Elevation: 3656 ft
TransAlt. 18000 ft.

Airport Communications:
ASOS:121.025
DENVER CNTR:132.5
WICHITA RDO:122.4
CTAF/UNICOM:122.95

KGLD Zoom In..

Runways:

(A) RW 05 length 3501 ft width 75 ft
---- / hdg 54

(B) RW 12 length 5499 ft width 100 ft
---- / hdg 125

(C) RW 17 length 1781 ft width 40 ft
---- / hdg 171

(D) RW 23 length 3501 ft width 75 ft
---- / hdg 234

(E) RW 30 length 5499 ft width 100 ft
ILS 108.90 / hdg 305

(F) RW 35 length 1781 ft width 40 ft
---- / hdg 351

Location; KGLD
Day. 20 / Time. 10.53 Zulu
* Altimeter: 30.21
* Temperature: 07° c. 44.6°f.
* Wind from: 330° Speed 10 kn.
Dewpoint: 06° c.
Visibility: 10 Statute Miles.
Clouds: Overcast 2100 ft.

KGLD 201053Z AUTO 33010KT 10SM OVC021 07/06 A3021 RMK AO2 SLP222 T00720061


Wind From 330°
Speed 10 kn.

 
 
jpsmedia.com for Web Design SOUNDCLOUD worldairports.se 2018   terms of use